createdAt,value
2019-05-12T00:04:12.000Z,86.80
2019-05-12T00:06:43.052Z,86.90
2019-05-12T00:09:13.884Z,86.60
2019-05-12T00:11:44.754Z,86.50
2019-05-12T00:14:17.815Z,86.50
2019-05-12T00:16:49.114Z,86.30
2019-05-12T00:19:20.236Z,86.20
2019-05-12T00:21:51.114Z,86.20
2019-05-12T00:24:21.824Z,86.40
2019-05-12T00:26:53.917Z,86.40
2019-05-12T00:29:24.955Z,86.20
2019-05-12T00:31:57.921Z,86.20
2019-05-12T00:34:28.849Z,86.10
2019-05-12T00:37:00.083Z,86.10
2019-05-12T00:39:30.801Z,86.00
2019-05-12T00:42:01.763Z,85.80
2019-05-12T00:44:32.652Z,85.80
2019-05-12T00:47:03.531Z,85.90
2019-05-12T00:49:34.379Z,85.70
2019-05-12T00:52:05.311Z,85.50
2019-05-12T00:54:37.562Z,85.40
2019-05-12T00:57:08.336Z,85.20
2019-05-12T00:59:40.032Z,85.20
2019-05-12T01:02:10.744Z,85.20
2019-05-12T01:04:41.514Z,85.00
2019-05-12T01:07:12.343Z,84.90
2019-05-12T01:09:43.137Z,84.90
2019-05-12T01:12:14.160Z,84.90
2019-05-12T01:14:44.767Z,84.90
2019-05-12T01:17:17.249Z,84.60
2019-05-12T01:19:48.585Z,84.80
2019-05-12T01:22:19.479Z,84.70
2019-05-12T01:24:50.191Z,84.50
2019-05-12T01:27:21.162Z,84.60
2019-05-12T01:29:51.978Z,84.40
2019-05-12T01:32:24.191Z,84.10
2019-05-12T01:34:54.962Z,84.10
2019-05-12T01:37:27.785Z,83.80
2019-05-12T01:40:00.114Z,84.40
2019-05-12T01:42:30.157Z,83.20
2019-05-12T01:45:00.991Z,82.90
2019-05-12T01:47:31.585Z,82.60
2019-05-12T01:50:02.521Z,82.40
2019-05-12T01:52:33.331Z,82.10
2019-05-12T01:55:04.199Z,81.80
2019-05-12T01:57:35.267Z,81.50
2019-05-12T02:00:08.064Z,81.30
2019-05-12T02:02:39.179Z,81.10
2019-05-12T02:05:10.489Z,80.90
2019-05-12T02:07:42.747Z,80.20
2019-05-12T02:10:13.945Z,80.20
2019-05-12T02:12:44.760Z,81.00
2019-05-12T02:15:18.356Z,79.70
2019-05-12T02:17:49.412Z,79.80
2019-05-12T02:20:21.356Z,79.80
2019-05-12T02:22:52.073Z,79.60
2019-05-12T02:25:23.052Z,79.40
2019-05-12T02:27:53.820Z,79.00
2019-05-12T02:30:25.039Z,78.80
2019-05-12T02:32:59.124Z,78.80
2019-05-12T02:35:28.148Z,78.80
2019-05-12T02:37:59.017Z,78.60
2019-05-12T02:40:29.908Z,78.10
2019-05-12T02:43:00.825Z,77.70
2019-05-12T02:45:31.575Z,77.10
2019-05-12T02:48:05.039Z,76.70
2019-05-12T02:50:37.335Z,76.40
2019-05-12T02:53:08.722Z,76.50
2019-05-12T02:55:40.229Z,76.40
2019-05-12T02:58:15.196Z,76.20
2019-05-12T03:00:46.831Z,76.20
2019-05-12T03:03:20.210Z,75.80
2019-05-12T03:05:54.867Z,75.70
2019-05-12T03:08:26.090Z,75.40
2019-05-12T03:10:56.992Z,74.00
2019-05-12T03:13:27.943Z,74.90
2019-05-12T03:15:58.984Z,73.80
2019-05-12T03:18:29.731Z,74.30
2019-05-12T03:21:00.504Z,74.40
2019-05-12T03:23:31.215Z,74.30
2019-05-12T03:26:04.922Z,74.00
2019-05-12T03:28:35.565Z,74.00
2019-05-12T03:31:08.129Z,73.30
2019-05-12T03:33:43.546Z,73.40
2019-05-12T03:36:16.860Z,71.60
2019-05-12T03:38:44.804Z,72.20
2019-05-12T03:41:15.627Z,71.90
2019-05-12T03:43:46.616Z,72.30
2019-05-12T03:46:17.368Z,72.00
2019-05-12T03:48:48.181Z,72.20
2019-05-12T03:51:19.425Z,71.90
2019-05-12T03:53:50.331Z,71.10
2019-05-12T03:56:21.167Z,71.20
2019-05-12T03:58:54.087Z,71.10
2019-05-12T04:01:25.519Z,70.90
2019-05-12T04:03:56.311Z,70.50
2019-05-12T04:06:26.966Z,69.30
2019-05-12T04:08:59.952Z,69.70
2019-05-12T04:11:29.863Z,69.30
2019-05-12T04:14:00.679Z,69.30
2019-05-12T04:16:31.371Z,69.40
2019-05-12T04:19:05.028Z,70.10
2019-05-12T04:21:35.107Z,69.60
2019-05-12T04:24:06.530Z,68.10
2019-05-12T04:26:37.369Z,68.20
2019-05-12T04:29:08.171Z,68.30
2019-05-12T04:31:39.085Z,68.50
2019-05-12T04:34:14.286Z,68.20
2019-05-12T04:36:44.616Z,68.00
2019-05-12T04:39:14.814Z,68.60
2019-05-12T04:41:45.971Z,65.80
2019-05-12T04:44:16.951Z,68.00
2019-05-12T04:46:47.619Z,66.90
2019-05-12T04:49:18.623Z,66.70
2019-05-12T04:51:49.249Z,66.50
2019-05-12T04:54:20.099Z,66.70
2019-05-12T04:56:50.769Z,66.40
2019-05-12T04:59:21.671Z,68.00
2019-05-12T05:01:54.085Z,65.10
2019-05-12T05:04:24.618Z,64.00
2019-05-12T05:06:55.621Z,65.40
2019-05-12T05:09:26.473Z,65.20
2019-05-12T05:11:57.079Z,65.80
2019-05-12T05:14:27.840Z,64.70
2019-05-12T05:16:58.663Z,65.40
2019-05-12T05:19:29.531Z,66.00
2019-05-12T05:22:00.321Z,61.90
2019-05-12T05:24:31.101Z,63.70
2019-05-12T05:27:04.264Z,64.40
2019-05-12T05:29:37.033Z,65.10
2019-05-12T05:32:06.531Z,64.40
2019-05-12T05:34:37.418Z,64.90
2019-05-12T05:37:08.200Z,64.10
2019-05-12T05:39:47.905Z,64.90
2019-05-12T05:42:13.439Z,64.40
2019-05-12T05:44:43.738Z,64.80
2019-05-12T05:47:14.979Z,64.60
2019-05-12T05:49:45.727Z,64.50
2019-05-12T05:52:16.679Z,63.70
2019-05-12T05:54:47.556Z,63.50
2019-05-12T05:57:20.025Z,64.40
2019-05-12T05:59:50.538Z,65.30
2019-05-12T06:02:23.151Z,65.30
2019-05-12T06:04:56.265Z,65.60
2019-05-12T06:07:34.851Z,66.20
2019-05-12T06:09:58.087Z,64.90
2019-05-12T06:12:28.971Z,61.60
2019-05-12T06:15:00.031Z,63.10
2019-05-12T06:17:30.942Z,60.20
2019-05-12T06:20:04.214Z,61.50
2019-05-12T06:22:34.297Z,62.70
2019-05-12T06:25:06.039Z,62.50
2019-05-12T06:27:36.917Z,63.10
2019-05-12T06:30:10.150Z,62.30
2019-05-12T06:32:45.915Z,64.20
2019-05-12T06:35:15.111Z,64.00
2019-05-12T06:37:57.317Z,63.30
2019-05-12T06:40:17.847Z,62.00
2019-05-12T06:42:53.216Z,61.20
2019-05-12T06:45:23.363Z,61.20
2019-05-12T06:47:55.935Z,61.30
2019-05-12T06:50:28.692Z,60.70
2019-05-12T06:52:57.737Z,61.30
2019-05-12T06:55:33.376Z,61.80
2019-05-12T06:58:00.954Z,61.80
2019-05-12T07:00:32.627Z,63.10
2019-05-12T07:03:04.236Z,59.60
2019-05-12T07:05:38.404Z,60.80
2019-05-12T07:08:08.383Z,61.90
2019-05-12T07:10:43.484Z,61.80
2019-05-12T07:13:14.746Z,61.60
2019-05-12T07:15:43.911Z,62.10
2019-05-12T07:18:17.796Z,60.70
2019-05-12T07:20:48.551Z,60.80
2019-05-12T07:23:19.536Z,60.90
2019-05-12T07:25:51.554Z,60.40
2019-05-12T07:28:23.723Z,58.90
2019-05-12T07:30:54.686Z,60.60
2019-05-12T07:33:25.623Z,60.50
2019-05-12T07:36:01.297Z,59.80
2019-05-12T07:38:30.896Z,61.50
2019-05-12T07:41:08.921Z,61.30
2019-05-12T07:43:35.159Z,61.90
2019-05-12T07:46:07.228Z,61.30
2019-05-12T07:48:40.345Z,62.10
2019-05-12T07:51:10.534Z,61.10
2019-05-12T07:53:46.818Z,61.10
2019-05-12T07:56:14.437Z,61.00
2019-05-12T07:58:47.508Z,60.50
2019-05-12T08:01:18.601Z,60.00
2019-05-12T08:03:50.906Z,60.80
2019-05-12T08:06:21.569Z,61.00
2019-05-12T08:08:56.581Z,61.10
2019-05-12T08:11:28.723Z,61.30
2019-05-12T08:13:57.039Z,60.70
2019-05-12T08:16:29.662Z,59.80
2019-05-12T08:19:00.094Z,60.20
2019-05-12T08:21:34.841Z,59.90
2019-05-12T08:24:03.783Z,59.40
2019-05-12T08:26:34.653Z,59.80
2019-05-12T08:29:10.490Z,59.00
2019-05-12T08:31:40.678Z,60.50
2019-05-12T08:34:10.088Z,60.00
2019-05-12T08:36:44.966Z,59.60
2019-05-12T08:39:21.292Z,58.50
2019-05-12T08:41:45.234Z,57.00
2019-05-12T08:44:17.649Z,59.80
2019-05-12T08:46:51.766Z,59.10
2019-05-12T08:49:20.396Z,57.80
2019-05-12T08:51:57.757Z,59.50
2019-05-12T08:54:45.419Z,58.10
2019-05-12T08:57:15.167Z,58.40
2019-05-12T08:59:45.825Z,58.30
2019-05-12T09:02:16.773Z,59.00
2019-05-12T09:04:51.397Z,58.70
2019-05-12T09:07:19.846Z,59.20
2019-05-12T09:09:53.215Z,58.00
2019-05-12T09:12:23.298Z,56.40
2019-05-12T09:14:54.625Z,58.10
2019-05-12T09:17:25.739Z,57.30
2019-05-12T09:20:06.064Z,56.60
2019-05-12T09:22:28.761Z,58.30
2019-05-12T09:25:06.341Z,56.40
2019-05-12T09:27:33.339Z,56.70
2019-05-12T09:30:08.015Z,58.50
2019-05-12T09:32:39.131Z,56.80
2019-05-12T09:35:09.452Z,58.30
2019-05-12T09:37:40.594Z,58.00
2019-05-12T09:40:11.600Z,57.30
2019-05-12T09:42:44.042Z,57.80
2019-05-12T09:45:14.795Z,55.50
2019-05-12T09:47:45.597Z,55.70
2019-05-12T09:50:20.326Z,56.20
2019-05-12T09:52:52.474Z,57.30
2019-05-12T09:55:22.793Z,57.50
2019-05-12T09:57:54.392Z,56.70
2019-05-12T10:00:30.490Z,56.40
2019-05-12T10:03:00.643Z,57.20
2019-05-12T10:05:30.577Z,56.20
2019-05-12T10:08:04.557Z,57.20
2019-05-12T10:10:40.126Z,56.70
2019-05-12T10:13:06.976Z,56.40
2019-05-12T10:15:37.961Z,56.90
2019-05-12T10:18:11.036Z,56.60
2019-05-12T10:20:41.052Z,57.20
2019-05-12T10:23:18.626Z,57.60
2019-05-12T10:25:44.702Z,56.50
2019-05-12T10:28:16.199Z,56.60
2019-05-12T10:30:52.513Z,56.40
2019-05-12T10:33:19.477Z,57.60
2019-05-12T10:35:50.289Z,57.40
2019-05-12T10:38:21.212Z,56.40
2019-05-12T10:40:52.033Z,58.10
2019-05-12T10:43:23.674Z,57.80
2019-05-12T10:45:54.587Z,58.00
2019-05-12T10:48:25.327Z,57.30
2019-05-12T10:50:56.149Z,58.20
2019-05-12T10:53:26.989Z,57.90
2019-05-12T10:55:57.773Z,58.30
2019-05-12T10:58:28.593Z,58.20
2019-05-12T11:01:05.404Z,58.40
2019-05-12T11:03:33.742Z,58.50
2019-05-12T11:06:07.393Z,58.50
2019-05-12T11:08:41.372Z,58.80
2019-05-12T11:11:09.206Z,58.90
2019-05-12T11:13:40.343Z,59.00
2019-05-12T11:16:14.655Z,58.40
2019-05-12T11:18:44.686Z,59.00
2019-05-12T11:21:15.660Z,59.30
2019-05-12T11:23:46.386Z,59.30
2019-05-12T11:26:17.560Z,59.40
2019-05-12T11:28:48.495Z,59.60
2019-05-12T11:31:19.295Z,59.80
2019-05-12T11:33:50.277Z,59.90
2019-05-12T11:36:21.279Z,60.10
2019-05-12T11:38:53.357Z,60.50
2019-05-12T11:41:28.245Z,60.60
2019-05-12T11:43:56.668Z,60.90
2019-05-12T11:46:27.648Z,61.10
2019-05-12T11:48:58.527Z,61.40
2019-05-12T11:51:30.665Z,61.60
2019-05-12T11:54:03.395Z,61.80
2019-05-12T11:56:34.039Z,62.10
2019-05-12T11:59:04.778Z,62.30
2019-05-12T12:01:39.570Z,62.50
2019-05-12T12:04:07.729Z,62.70
2019-05-12T12:06:38.594Z,63.10
2019-05-12T12:09:15.259Z,63.20
2019-05-12T12:11:43.327Z,63.40
2019-05-12T12:14:14.416Z,63.60
2019-05-12T12:16:49.928Z,63.70
2019-05-12T12:19:17.373Z,64.00
2019-05-12T12:21:50.055Z,64.20
2019-05-12T12:24:21.413Z,64.30
2019-05-12T12:26:53.732Z,64.40
2019-05-12T12:29:24.763Z,64.50
2019-05-12T12:31:56.754Z,64.70
2019-05-12T12:34:30.103Z,65.00
2019-05-12T12:36:59.933Z,65.10
2019-05-12T12:39:30.821Z,65.30
2019-05-12T12:42:01.635Z,65.50
2019-05-12T12:44:34.071Z,65.50
2019-05-12T12:47:04.801Z,65.70
2019-05-12T12:49:39.847Z,65.90
2019-05-12T12:52:07.791Z,66.00
2019-05-12T12:54:38.490Z,66.20
2019-05-12T12:57:10.068Z,66.30
2019-05-12T12:59:45.056Z,66.50
2019-05-12T13:02:14.232Z,66.60
2019-05-12T13:04:50.060Z,66.60
2019-05-12T13:07:17.404Z,66.70
2019-05-12T13:09:48.301Z,66.80
2019-05-12T13:12:19.704Z,66.90
2019-05-12T13:14:53.095Z,67.00
2019-05-12T13:17:29.041Z,67.10
2019-05-12T13:19:58.689Z,67.10
2019-05-12T13:22:29.549Z,67.30
2019-05-12T13:25:06.464Z,67.30
2019-05-12T13:27:36.348Z,67.50
2019-05-12T13:30:05.402Z,67.40
2019-05-12T13:32:37.954Z,67.40
2019-05-12T13:35:15.328Z,67.50
2019-05-12T13:37:43.268Z,67.50
2019-05-12T13:40:14.915Z,67.50
2019-05-12T13:42:45.643Z,67.50
2019-05-12T13:45:16.806Z,67.50
2019-05-12T13:47:47.848Z,67.60
2019-05-12T13:50:26.070Z,67.80
2019-05-12T13:52:51.185Z,67.70
2019-05-12T13:55:23.815Z,67.70
2019-05-12T13:57:57.762Z,67.80
2019-05-12T14:00:26.285Z,67.90
2019-05-12T14:03:03.547Z,67.90
2019-05-12T14:05:29.350Z,67.90
2019-05-12T14:08:00.201Z,68.00
2019-05-12T14:10:33.209Z,68.10
2019-05-12T14:13:03.523Z,68.10
2019-05-12T14:15:34.432Z,68.20
2019-05-12T14:18:05.149Z,68.40
2019-05-12T14:20:35.743Z,68.60
2019-05-12T14:23:06.638Z,68.70
2019-05-12T14:25:37.430Z,68.70
2019-05-12T14:28:09.600Z,68.80
2019-05-12T14:30:41.301Z,69.00
2019-05-12T14:33:12.854Z,69.10
2019-05-12T14:35:46.026Z,69.20
2019-05-12T14:38:19.294Z,69.40
2019-05-12T14:40:48.059Z,69.40
2019-05-12T14:43:21.258Z,69.40
2019-05-12T14:45:51.173Z,69.40
2019-05-12T14:48:22.167Z,69.60
2019-05-12T14:50:53.546Z,69.70
2019-05-12T14:53:24.481Z,69.60
2019-05-12T14:55:55.242Z,69.80
2019-05-12T14:58:26.801Z,69.80
2019-05-12T15:00:58.251Z,69.90
2019-05-12T15:03:29.343Z,70.00
2019-05-12T15:06:00.186Z,70.00
2019-05-12T15:08:36.295Z,70.10
2019-05-12T15:11:03.930Z,70.20
2019-05-12T15:13:34.914Z,70.20
2019-05-12T15:16:06.782Z,70.10
2019-05-12T15:18:39.611Z,70.40
2019-05-12T15:21:09.628Z,70.30
2019-05-12T15:23:40.696Z,70.40
2019-05-12T15:26:17.708Z,70.50
2019-05-12T15:28:43.951Z,70.50
2019-05-12T15:31:14.814Z,70.40
2019-05-12T15:33:45.603Z,70.40
2019-05-12T15:36:16.700Z,70.40
2019-05-12T15:38:49.149Z,70.50
2019-05-12T15:41:20.210Z,71.00
2019-05-12T15:43:52.918Z,71.10
2019-05-12T15:46:24.548Z,71.20
2019-05-12T15:48:55.514Z,71.10
2019-05-12T15:51:26.555Z,71.10
2019-05-12T15:54:05.345Z,71.00
2019-05-12T15:56:29.746Z,71.40
2019-05-12T15:59:02.621Z,71.30
2019-05-12T16:01:33.512Z,71.40
2019-05-12T16:04:04.454Z,71.30
2019-05-12T16:06:35.330Z,71.50
2019-05-12T16:09:07.645Z,71.80
2019-05-12T16:11:38.474Z,72.20
2019-05-12T16:14:09.477Z,72.20
2019-05-12T16:16:42.511Z,72.20
2019-05-12T16:19:14.531Z,72.50
2019-05-12T16:21:45.617Z,72.70
2019-05-12T16:24:16.696Z,72.70
2019-05-12T16:26:51.848Z,73.10
2019-05-12T16:29:19.762Z,73.20
2019-05-12T16:31:50.583Z,73.40
2019-05-12T16:34:21.248Z,73.60
2019-05-12T16:36:54.769Z,73.80
2019-05-12T16:39:24.460Z,74.00
2019-05-12T16:41:59.958Z,73.90
2019-05-12T16:44:27.696Z,73.80
2019-05-12T16:46:58.503Z,74.30
2019-05-12T16:49:33.221Z,74.10
2019-05-12T16:52:03.504Z,74.20
2019-05-12T16:54:33.694Z,74.20
2019-05-12T16:57:06.464Z,74.40
2019-05-12T16:59:36.916Z,74.80
2019-05-12T17:02:09.766Z,74.50
2019-05-12T17:04:40.251Z,74.50
2019-05-12T17:07:17.305Z,74.40
2019-05-12T17:09:43.887Z,74.60
2019-05-12T17:12:14.886Z,75.20
2019-05-12T17:14:49.910Z,76.90
2019-05-12T17:17:20.995Z,76.20
2019-05-12T17:19:49.697Z,76.30
2019-05-12T17:22:20.514Z,75.90
2019-05-12T17:24:53.698Z,75.70
2019-05-12T17:27:26.667Z,76.00
2019-05-12T17:29:55.730Z,76.20
2019-05-12T17:32:26.705Z,76.20
2019-05-12T17:34:57.473Z,77.30
2019-05-12T17:37:31.502Z,76.10
2019-05-12T17:40:00.625Z,75.80
2019-05-12T17:42:33.297Z,75.90
2019-05-12T17:45:03.927Z,76.10
2019-05-12T17:47:34.770Z,76.00
2019-05-12T17:50:10.297Z,76.00
2019-05-12T17:52:39.513Z,76.10
2019-05-12T17:55:10.998Z,76.00
2019-05-12T17:57:43.782Z,76.20
2019-05-12T18:00:16.023Z,76.30
2019-05-12T18:02:49.422Z,76.40
2019-05-12T18:05:20.160Z,76.50
2019-05-12T18:07:52.360Z,76.60
2019-05-12T18:10:23.890Z,76.90
2019-05-12T18:12:54.949Z,76.90
2019-05-12T18:15:32.262Z,77.20
2019-05-12T18:17:57.946Z,76.70
2019-05-12T18:20:31.177Z,76.60
2019-05-12T18:23:01.200Z,76.40
2019-05-12T18:25:32.374Z,76.30
2019-05-12T18:28:03.744Z,76.60
2019-05-12T18:30:34.871Z,76.90
2019-05-12T18:33:09.130Z,77.10
2019-05-12T18:35:37.890Z,77.80
2019-05-12T18:38:18.158Z,77.60
2019-05-12T18:40:41.021Z,77.40
2019-05-12T18:43:14.016Z,77.30
2019-05-12T18:45:48.665Z,77.50
2019-05-12T18:48:21.792Z,77.60
2019-05-12T18:50:49.005Z,78.00
2019-05-12T18:53:27.649Z,78.40
2019-05-12T18:55:53.936Z,78.20
2019-05-12T18:58:30.678Z,78.20
2019-05-12T19:00:56.329Z,78.10
2019-05-12T19:03:27.331Z,78.00
2019-05-12T19:05:58.336Z,78.70
2019-05-12T19:08:29.260Z,78.90
2019-05-12T19:11:13.999Z,79.10
2019-05-12T19:13:33.793Z,78.90
2019-05-12T19:16:07.021Z,79.00
2019-05-12T19:18:37.384Z,78.40
2019-05-12T19:21:10.107Z,78.20
2019-05-12T19:23:40.737Z,78.20
2019-05-12T19:26:13.412Z,78.60
2019-05-12T19:28:52.596Z,78.30
2019-05-12T19:31:16.319Z,78.50
2019-05-12T19:33:56.662Z,78.40
2019-05-12T19:36:19.330Z,79.00
2019-05-12T19:38:50.126Z,79.30
2019-05-12T19:41:20.947Z,79.30
2019-05-12T19:43:53.436Z,79.40
2019-05-12T19:46:24.302Z,79.00
2019-05-12T19:48:55.051Z,79.30
2019-05-12T19:51:28.338Z,79.40
2019-05-12T19:53:58.070Z,79.30
2019-05-12T19:56:34.486Z,79.20
2019-05-12T19:59:01.179Z,79.50
2019-05-12T20:01:34.123Z,79.80
2019-05-12T20:04:04.297Z,79.70
2019-05-12T20:06:34.959Z,80.00
2019-05-12T20:09:10.780Z,80.20
2019-05-12T20:11:39.536Z,80.70
2019-05-12T20:14:15.655Z,81.20
2019-05-12T20:16:43.939Z,80.60
2019-05-12T20:19:14.455Z,80.70
2019-05-12T20:21:45.298Z,81.20
2019-05-12T20:24:16.219Z,80.80
2019-05-12T20:26:47.101Z,81.10
2019-05-12T20:29:17.889Z,80.80
2019-05-12T20:31:48.850Z,80.50
2019-05-12T20:34:19.595Z,80.50
2019-05-12T20:36:50.517Z,80.20
2019-05-12T20:39:22.360Z,80.60
2019-05-12T20:41:54.471Z,80.90
2019-05-12T20:44:25.728Z,80.60
2019-05-12T20:47:01.358Z,80.70
2019-05-12T20:49:28.772Z,80.60
2019-05-12T20:52:03.635Z,80.60
2019-05-12T20:54:33.547Z,80.40
2019-05-12T20:57:08.046Z,80.40
2019-05-12T20:59:36.038Z,80.20
2019-05-12T21:02:06.882Z,80.40
2019-05-12T21:04:38.031Z,80.10
2019-05-12T21:07:13.996Z,80.20
2019-05-12T21:09:41.376Z,80.50
2019-05-12T21:12:13.665Z,80.50
2019-05-12T21:14:51.410Z,80.40
2019-05-12T21:17:18.498Z,80.50
2019-05-12T21:19:56.704Z,80.60
2019-05-12T21:22:23.455Z,80.60
2019-05-12T21:24:53.449Z,80.80
2019-05-12T21:27:24.981Z,80.60
2019-05-12T21:30:00.637Z,80.80
2019-05-12T21:32:28.160Z,80.60
2019-05-12T21:34:59.575Z,80.70
2019-05-12T21:37:30.679Z,80.70
2019-05-12T21:40:03.676Z,81.00
2019-05-12T21:42:33.927Z,80.90
2019-05-12T21:45:04.875Z,80.90
2019-05-12T21:47:42.860Z,80.80
2019-05-12T21:50:08.563Z,80.70
2019-05-12T21:52:39.422Z,80.90
2019-05-12T21:55:13.601Z,81.00
2019-05-12T21:57:43.743Z,80.80
2019-05-12T22:00:20.178Z,80.60
2019-05-12T22:02:53.413Z,80.60
2019-05-12T22:05:46.677Z,80.70
2019-05-12T22:07:55.744Z,80.60
2019-05-12T22:10:30.606Z,80.80
2019-05-12T22:13:00.461Z,80.90
2019-05-12T22:15:33.650Z,81.10
2019-05-12T22:18:04.791Z,80.90
2019-05-12T22:20:37.324Z,80.70
2019-05-12T22:23:11.958Z,80.70
2019-05-12T22:25:40.559Z,80.40
2019-05-12T22:28:13.295Z,80.50
